createdAt,value
2018-08-30T00:00:53.773Z,25.34
2018-08-30T00:03:20.412Z,25.31
2018-08-30T00:05:47.099Z,25.35
2018-08-30T00:08:13.765Z,25.34
2018-08-30T00:10:40.495Z,25.30
2018-08-30T00:13:07.236Z,25.29
2018-08-30T00:15:33.888Z,25.31
2018-08-30T00:18:00.550Z,25.31
2018-08-30T00:20:27.265Z,25.30
2018-08-30T00:22:56.573Z,25.30
2018-08-30T00:25:23.254Z,25.28
2018-08-30T00:27:49.925Z,25.26
2018-08-30T00:30:16.573Z,25.28
2018-08-30T00:32:43.298Z,25.28
2018-08-30T00:35:09.956Z,25.25
2018-08-30T00:37:36.593Z,25.25
2018-08-30T00:40:03.284Z,25.25
2018-08-30T00:42:29.950Z,25.29
2018-08-30T00:44:56.635Z,25.21
2018-08-30T00:47:23.282Z,25.27
2018-08-30T00:49:49.937Z,25.21
2018-08-30T00:52:16.575Z,25.19
2018-08-30T00:54:43.229Z,25.19
2018-08-30T00:57:09.896Z,25.18
2018-08-30T00:59:36.532Z,25.19
2018-08-30T01:02:03.242Z,25.16
2018-08-30T01:04:30.585Z,25.15
2018-08-30T01:07:00.467Z,25.17
2018-08-30T01:09:27.109Z,25.17
2018-08-30T01:11:53.753Z,25.16
2018-08-30T01:14:20.706Z,25.16
2018-08-30T01:16:47.360Z,25.14
2018-08-30T01:19:14.097Z,25.14
2018-08-30T01:21:40.729Z,25.15
2018-08-30T01:24:07.364Z,25.13
2018-08-30T01:26:34.016Z,25.14
2018-08-30T01:29:00.732Z,25.13
2018-08-30T01:31:27.332Z,25.14
2018-08-30T01:33:54.006Z,25.14
2018-08-30T01:36:20.787Z,25.13
2018-08-30T01:38:47.470Z,25.13
2018-08-30T01:41:15.656Z,25.12
2018-08-30T01:43:40.804Z,25.12
2018-08-30T01:46:07.442Z,25.12
2018-08-30T01:48:34.093Z,25.08
2018-08-30T01:51:00.761Z,25.08
2018-08-30T01:53:27.492Z,25.09
2018-08-30T01:55:54.173Z,25.07
2018-08-30T01:58:20.816Z,25.06
2018-08-30T02:00:47.578Z,25.09
2018-08-30T02:03:17.417Z,25.06
2018-08-30T02:05:44.050Z,25.06
2018-08-30T02:08:10.684Z,25.03
2018-08-30T02:10:37.380Z,25.04
2018-08-30T02:13:04.032Z,25.01
2018-08-30T02:15:30.675Z,25.03
2018-08-30T02:17:57.416Z,25.00
2018-08-30T02:20:24.092Z,25.01
2018-08-30T02:22:50.725Z,24.98
2018-08-30T02:25:17.473Z,25.01
2018-08-30T02:27:44.126Z,25.05
2018-08-30T02:30:10.763Z,25.01
2018-08-30T02:32:37.449Z,25.04
2018-08-30T02:35:05.452Z,24.98
2018-08-30T02:37:30.790Z,24.99
2018-08-30T02:39:57.427Z,24.95
2018-08-30T02:42:24.143Z,24.93
2018-08-30T02:44:50.825Z,24.94
2018-08-30T02:47:17.521Z,24.90
2018-08-30T02:49:44.170Z,24.97
2018-08-30T02:52:10.855Z,24.94
2018-08-30T02:54:37.489Z,24.91
2018-08-30T02:57:04.193Z,24.93
2018-08-30T02:59:30.823Z,24.92
2018-08-30T03:01:57.511Z,24.93
2018-08-30T03:04:24.174Z,24.92
2018-08-30T03:06:50.813Z,24.93
2018-08-30T03:09:17.527Z,24.98
2018-08-30T03:11:44.158Z,24.97
2018-08-30T03:14:10.801Z,24.95
2018-08-30T03:16:37.478Z,24.93
2018-08-30T03:19:04.202Z,25.00
2018-08-30T03:21:33.886Z,24.99
2018-08-30T03:24:01.919Z,25.01
2018-08-30T03:26:27.204Z,24.90
2018-08-30T03:28:53.852Z,24.88
2018-08-30T03:31:20.490Z,24.87
2018-08-30T03:33:47.178Z,24.77
2018-08-30T03:36:13.834Z,24.87
2018-08-30T03:38:40.594Z,24.88
2018-08-30T03:41:07.308Z,24.80
2018-08-30T03:43:33.923Z,24.86
2018-08-30T03:46:00.590Z,24.75
2018-08-30T03:48:27.227Z,24.68
2018-08-30T03:50:53.922Z,24.73
2018-08-30T03:53:20.557Z,24.70
2018-08-30T03:55:47.213Z,24.65
2018-08-30T03:58:16.843Z,24.64
2018-08-30T04:00:43.494Z,24.64
2018-08-30T04:03:10.137Z,24.62
2018-08-30T04:05:37.787Z,24.65
2018-08-30T04:08:03.467Z,24.66
2018-08-30T04:10:30.130Z,24.69
2018-08-30T04:12:56.776Z,24.67
2018-08-30T04:15:23.440Z,24.60
2018-08-30T04:17:50.159Z,24.55
2018-08-30T04:20:16.811Z,24.59
2018-08-30T04:22:43.492Z,24.61
2018-08-30T04:25:10.121Z,24.66
2018-08-30T04:27:36.802Z,24.66
2018-08-30T04:30:03.452Z,24.57
2018-08-30T04:32:30.084Z,24.61
2018-08-30T04:34:56.720Z,24.59
2018-08-30T04:37:23.373Z,24.65
2018-08-30T04:39:50.009Z,24.68
2018-08-30T04:42:16.761Z,24.68
2018-08-30T04:44:43.383Z,24.71
2018-08-30T04:47:11.329Z,24.77
2018-08-30T04:49:36.744Z,24.82
2018-08-30T04:52:03.440Z,24.83
2018-08-30T04:54:33.384Z,24.89
2018-08-30T04:57:00.060Z,24.86
2018-08-30T04:59:26.708Z,24.87
2018-08-30T05:01:56.539Z,24.93
2018-08-30T05:04:23.248Z,24.89
2018-08-30T05:06:49.900Z,24.91
2018-08-30T05:09:16.554Z,24.94
2018-08-30T05:11:43.224Z,25.03
2018-08-30T05:14:09.891Z,25.09
2018-08-30T05:16:36.518Z,25.19
2018-08-30T05:19:03.203Z,25.19
2018-08-30T05:21:31.196Z,25.23
2018-08-30T05:23:59.502Z,25.25
2018-08-30T05:26:26.166Z,25.37
2018-08-30T05:28:52.792Z,25.31
2018-08-30T05:31:19.447Z,25.25
2018-08-30T05:33:46.101Z,25.19
2018-08-30T05:36:12.758Z,25.34
2018-08-30T05:38:39.422Z,25.38
2018-08-30T05:41:06.071Z,25.32
2018-08-30T05:43:32.702Z,25.24
2018-08-30T05:45:59.366Z,25.33
2018-08-30T05:48:25.998Z,25.46
2018-08-30T05:50:52.722Z,25.58
2018-08-30T05:53:19.445Z,25.62
2018-08-30T05:55:46.198Z,25.48
2018-08-30T05:58:12.918Z,25.55
2018-08-30T06:00:39.760Z,25.69
2018-08-30T06:03:06.444Z,25.69
2018-08-30T06:05:36.397Z,25.67
2018-08-30T06:08:03.056Z,25.60
2018-08-30T06:10:29.718Z,25.61
2018-08-30T06:12:59.297Z,25.65
2018-08-30T06:15:25.952Z,25.63
2018-08-30T06:17:52.708Z,25.77
2018-08-30T06:20:19.441Z,25.81
2018-08-30T06:22:46.063Z,25.86
2018-08-30T06:25:12.734Z,25.95
2018-08-30T06:27:39.348Z,26.07
2018-08-30T06:30:05.989Z,26.12
2018-08-30T06:32:32.645Z,26.10
2018-08-30T06:34:59.285Z,25.91
2018-08-30T06:37:25.949Z,25.87
2018-08-30T06:39:53.943Z,25.91
2018-08-30T06:42:19.277Z,25.80
2018-08-30T06:44:45.965Z,25.79
2018-08-30T06:47:12.785Z,25.83
2018-08-30T06:49:39.497Z,25.78
2018-08-30T06:52:06.229Z,25.78
2018-08-30T06:54:32.903Z,25.82
2018-08-30T06:56:59.541Z,25.77
2018-08-30T06:59:26.200Z,25.84
2018-08-30T07:01:52.842Z,25.75
2018-08-30T07:04:19.653Z,25.87
2018-08-30T07:06:46.290Z,25.85
2018-08-30T07:09:12.933Z,25.87
2018-08-30T07:11:39.590Z,25.77
2018-08-30T07:14:06.226Z,25.89
2018-08-30T07:16:33.010Z,25.93
2018-08-30T07:18:59.734Z,25.94
2018-08-30T07:21:26.383Z,25.93
2018-08-30T07:23:56.433Z,25.89
2018-08-30T07:26:23.108Z,25.79
2018-08-30T07:28:49.749Z,25.65
2018-08-30T07:31:16.433Z,25.81
2018-08-30T07:33:43.088Z,25.89
2018-08-30T07:36:09.748Z,25.91
2018-08-30T07:38:39.002Z,25.94
2018-08-30T07:41:05.662Z,25.92
2018-08-30T07:43:32.315Z,25.88
2018-08-30T07:45:59.002Z,25.93
2018-08-30T07:48:25.660Z,25.95
2018-08-30T07:50:52.436Z,26.06
2018-08-30T07:53:19.108Z,26.10
2018-08-30T07:55:45.786Z,26.00
2018-08-30T07:58:12.399Z,26.12
2018-08-30T08:00:39.140Z,25.96
2018-08-30T08:03:05.797Z,25.95
2018-08-30T08:05:32.461Z,26.03
2018-08-30T08:07:59.245Z,25.97
2018-08-30T08:10:29.290Z,26.02
2018-08-30T08:12:56.074Z,25.91
2018-08-30T08:15:22.710Z,25.88
2018-08-30T08:17:49.523Z,25.98
2018-08-30T08:20:17.174Z,25.85
2018-08-30T08:22:42.861Z,25.86
2018-08-30T08:25:10.012Z,25.89
2018-08-30T08:27:36.648Z,26.06
2018-08-30T08:30:03.296Z,26.00
2018-08-30T08:32:29.977Z,25.87
2018-08-30T08:34:56.665Z,26.10
2018-08-30T08:37:23.277Z,25.95
2018-08-30T08:39:51.262Z,25.99
2018-08-30T08:42:16.575Z,25.97
2018-08-30T08:44:43.294Z,26.05
2018-08-30T08:47:09.895Z,25.91
2018-08-30T08:49:36.591Z,25.89
2018-08-30T08:52:03.286Z,25.86
2018-08-30T08:54:29.931Z,25.95
2018-08-30T08:56:56.672Z,25.83
2018-08-30T08:59:23.388Z,25.75
2018-08-30T09:01:50.064Z,25.77
2018-08-30T09:04:16.726Z,25.84
2018-08-30T09:06:43.383Z,25.86
2018-08-30T09:09:10.034Z,25.84
2018-08-30T09:11:36.726Z,25.98
2018-08-30T09:14:03.338Z,26.00
2018-08-30T09:16:30.024Z,26.15
2018-08-30T09:18:56.660Z,26.30
2018-08-30T09:21:23.302Z,26.27
2018-08-30T09:23:49.963Z,26.12
2018-08-30T09:26:16.626Z,26.17
2018-08-30T09:28:43.368Z,26.09
2018-08-30T09:31:10.098Z,26.07
2018-08-30T09:33:36.781Z,26.06
2018-08-30T09:36:03.420Z,25.86
2018-08-30T09:38:30.327Z,25.79
2018-08-30T09:40:56.967Z,25.82
2018-08-30T09:43:23.703Z,25.99
2018-08-30T09:45:50.365Z,25.90
2018-08-30T09:48:17.053Z,25.76
2018-08-30T09:50:43.684Z,25.84
2018-08-30T09:53:10.470Z,25.71
2018-08-30T09:55:37.183Z,25.63
2018-08-30T09:58:03.885Z,25.67
2018-08-30T10:00:30.630Z,25.71
2018-08-30T10:02:57.346Z,25.84
2018-08-30T10:05:24.001Z,25.66
2018-08-30T10:07:50.720Z,25.52
2018-08-30T10:10:17.334Z,25.65
2018-08-30T10:12:44.033Z,25.57
2018-08-30T10:15:10.853Z,25.44
2018-08-30T10:17:37.602Z,25.25
2018-08-30T10:20:04.291Z,25.49
2018-08-30T10:22:30.929Z,25.55
2018-08-30T10:24:57.584Z,25.72
2018-08-30T10:27:24.259Z,25.57
2018-08-30T10:29:51.007Z,25.48
2018-08-30T10:32:17.744Z,25.52
2018-08-30T10:34:45.862Z,25.56
2018-08-30T10:37:11.230Z,25.54
2018-08-30T10:39:37.983Z,25.57
2018-08-30T10:42:04.686Z,25.82
2018-08-30T10:44:31.290Z,25.84
2018-08-30T10:46:57.952Z,25.78
2018-08-30T10:49:24.678Z,25.61
2018-08-30T10:51:51.297Z,25.66
2018-08-30T10:54:18.036Z,25.65
2018-08-30T10:56:46.322Z,25.78
2018-08-30T10:59:11.377Z,25.68
2018-08-30T11:01:38.104Z,25.73
2018-08-30T11:04:04.809Z,25.69
2018-08-30T11:06:31.443Z,25.53
2018-08-30T11:08:58.145Z,25.70
2018-08-30T11:11:25.871Z,25.65
2018-08-30T11:13:52.670Z,25.68
2018-08-30T11:16:19.311Z,25.80
2018-08-30T11:18:45.954Z,25.79
2018-08-30T11:21:12.650Z,25.72
2018-08-30T11:23:39.676Z,25.66
2018-08-30T11:26:07.959Z,25.72
2018-08-30T11:28:33.010Z,25.68
2018-08-30T11:30:59.931Z,25.73
2018-08-30T11:33:26.664Z,25.61
2018-08-30T11:35:53.435Z,25.69
2018-08-30T11:38:20.244Z,25.75
2018-08-30T11:40:49.414Z,25.84
2018-08-30T11:43:16.155Z,25.71
2018-08-30T11:45:42.940Z,25.70
2018-08-30T11:48:09.590Z,25.73
2018-08-30T11:50:36.233Z,25.73
2018-08-30T11:53:02.877Z,25.73
2018-08-30T11:55:29.537Z,25.71
2018-08-30T11:57:56.186Z,25.76
2018-08-30T12:00:24.232Z,25.79
2018-08-30T12:02:49.521Z,25.74
2018-08-30T12:05:16.162Z,25.80
2018-08-30T12:07:42.855Z,25.73
2018-08-30T12:10:09.558Z,25.84
2018-08-30T12:12:36.309Z,25.71
2018-08-30T12:15:02.956Z,25.69
2018-08-30T12:17:29.689Z,25.76
2018-08-30T12:19:56.493Z,25.73
2018-08-30T12:22:24.348Z,25.86
2018-08-30T12:24:49.871Z,25.78
2018-08-30T12:27:16.507Z,25.93
2018-08-30T12:29:44.571Z,25.91
2018-08-30T12:32:10.072Z,26.01
2018-08-30T12:34:36.762Z,25.98
2018-08-30T12:37:03.418Z,25.97
2018-08-30T12:39:30.060Z,26.08
2018-08-30T12:42:01.407Z,26.13
2018-08-30T12:44:23.488Z,26.06
2018-08-30T12:46:50.134Z,25.99
2018-08-30T12:49:16.789Z,25.97
2018-08-30T12:51:43.640Z,26.02
2018-08-30T12:54:11.371Z,25.97
2018-08-30T12:56:36.793Z,25.96
2018-08-30T12:59:03.598Z,25.92
2018-08-30T13:01:30.352Z,25.91
2018-08-30T13:03:59.978Z,25.87
2018-08-30T13:06:28.263Z,26.01
2018-08-30T13:08:53.412Z,25.91
2018-08-30T13:11:20.024Z,25.94
2018-08-30T13:13:47.150Z,25.95
2018-08-30T13:16:15.310Z,25.82
2018-08-30T13:18:40.584Z,25.81
2018-08-30T13:21:07.288Z,25.88
2018-08-30T13:23:34.121Z,25.95
2018-08-30T13:26:03.868Z,25.86
2018-08-30T13:28:30.398Z,25.97
2018-08-30T13:30:57.218Z,25.90
2018-08-30T13:33:24.175Z,25.88
2018-08-30T13:35:50.742Z,25.91
2018-08-30T13:38:17.876Z,25.88
2018-08-30T13:40:44.642Z,25.91
2018-08-30T13:43:11.116Z,25.74
2018-08-30T13:45:38.035Z,25.89
2018-08-30T13:48:04.434Z,25.96
2018-08-30T13:50:31.142Z,25.91
2018-08-30T13:53:00.940Z,25.88
2018-08-30T13:55:27.675Z,25.81
2018-08-30T13:57:55.757Z,25.89
2018-08-30T14:00:21.350Z,25.78
2018-08-30T14:02:47.622Z,25.90
2018-08-30T14:05:14.637Z,25.85
2018-08-30T14:07:41.144Z,25.84
2018-08-30T14:10:08.187Z,25.89
2018-08-30T14:12:34.762Z,25.92
2018-08-30T14:15:01.580Z,25.99
2018-08-30T14:17:27.724Z,25.88
2018-08-30T14:19:54.359Z,25.79
2018-08-30T14:22:21.142Z,25.75
2018-08-30T14:24:47.841Z,25.84
2018-08-30T14:27:14.648Z,25.82
2018-08-30T14:29:41.221Z,25.79
2018-08-30T14:34:34.713Z,25.82
2018-08-30T14:37:01.439Z,25.96
2018-08-30T14:39:28.182Z,25.90
2018-08-30T14:41:54.953Z,25.87
2018-08-30T14:44:21.593Z,25.90
2018-08-30T14:46:48.247Z,25.94
2018-08-30T14:49:14.987Z,25.93
2018-08-30T14:51:41.626Z,25.83
2018-08-30T14:54:09.746Z,25.68
2018-08-30T14:56:34.938Z,25.84
2018-08-30T14:59:01.655Z,25.79
2018-08-30T15:01:28.281Z,25.89
2018-08-30T15:03:56.283Z,25.94
2018-08-30T15:06:21.521Z,25.91
2018-08-30T15:08:48.206Z,25.87
2018-08-30T15:11:14.932Z,25.92
2018-08-30T15:13:41.672Z,25.83
2018-08-30T15:16:08.204Z,25.71
2018-08-30T15:18:35.857Z,25.73
2018-08-30T15:21:02.504Z,25.84
2018-08-30T15:23:29.318Z,25.73
2018-08-30T15:25:55.954Z,25.85
2018-08-30T15:28:22.664Z,25.49
2018-08-30T15:30:51.531Z,25.60
2018-08-30T15:33:16.057Z,25.62
2018-08-30T15:35:42.853Z,25.73
2018-08-30T15:38:09.568Z,25.63
2018-08-30T15:40:37.622Z,25.48
2018-08-30T15:43:02.874Z,25.54
2018-08-30T15:45:29.559Z,25.26
2018-08-30T15:47:56.213Z,25.35
2018-08-30T15:50:23.008Z,25.31
2018-08-30T15:52:49.624Z,25.33
2018-08-30T15:55:17.974Z,25.41
2018-08-30T15:57:43.077Z,25.40
2018-08-30T16:00:09.742Z,25.32
2018-08-30T16:02:36.467Z,25.31
2018-08-30T16:05:03.175Z,25.37
2018-08-30T16:07:29.834Z,25.27
2018-08-30T16:09:56.534Z,25.23
2018-08-30T16:12:23.268Z,25.20
2018-08-30T16:14:50.011Z,25.17
2018-08-30T16:17:16.749Z,25.14
2018-08-30T16:19:43.352Z,25.32
2018-08-30T16:22:10.047Z,25.06
2018-08-30T16:24:36.848Z,25.00
2018-08-30T16:27:03.535Z,24.96
2018-08-30T16:29:30.332Z,25.12
2018-08-30T16:31:56.956Z,25.15
2018-08-30T16:34:23.695Z,24.91
2018-08-30T16:36:50.295Z,24.84
2018-08-30T16:39:16.944Z,24.89
2018-08-30T16:41:44.995Z,25.26
2018-08-30T16:44:10.351Z,25.38
2018-08-30T16:46:38.256Z,25.52
2018-08-30T16:49:03.672Z,25.67
2018-08-30T16:51:30.286Z,25.77
2018-08-30T16:53:56.975Z,25.82
2018-08-30T16:56:23.727Z,25.91
2018-08-30T16:58:50.322Z,26.00
2018-08-30T17:01:16.969Z,26.02
2018-08-30T17:03:48.856Z,26.06
2018-08-30T17:06:13.396Z,26.10
2018-08-30T17:08:40.288Z,26.10
2018-08-30T17:11:06.777Z,25.97
2018-08-30T17:13:33.414Z,25.82
2018-08-30T17:16:00.178Z,25.72
2018-08-30T17:18:26.822Z,25.95
2018-08-30T17:20:53.460Z,25.99
2018-08-30T17:23:20.155Z,25.89
2018-08-30T17:25:46.902Z,25.98
2018-08-30T17:28:13.586Z,26.08
2018-08-30T17:30:43.142Z,26.11
2018-08-30T17:33:12.733Z,26.17
2018-08-30T17:35:39.417Z,26.16
2018-08-30T17:38:06.064Z,26.18
2018-08-30T17:40:32.716Z,26.11
2018-08-30T17:42:59.353Z,26.22
2018-08-30T17:45:26.094Z,26.18
2018-08-30T17:47:52.770Z,26.19
2018-08-30T17:50:19.449Z,26.22
2018-08-30T17:52:46.033Z,26.25
2018-08-30T17:55:12.671Z,26.25
2018-08-30T17:57:39.360Z,26.28
2018-08-30T18:00:05.997Z,26.30
2018-08-30T18:02:34.261Z,26.29
2018-08-30T18:04:59.309Z,26.31
2018-08-30T18:07:25.990Z,26.29
2018-08-30T18:09:52.632Z,26.30
2018-08-30T18:12:19.283Z,26.30
2018-08-30T18:14:45.975Z,26.34
2018-08-30T18:17:12.620Z,26.34
2018-08-30T18:19:39.272Z,26.23
2018-08-30T18:22:05.952Z,26.26
2018-08-30T18:24:32.579Z,26.25
2018-08-30T18:27:01.011Z,26.28
2018-08-30T18:29:26.072Z,26.36
2018-08-30T18:31:52.676Z,26.30
2018-08-30T18:34:19.361Z,26.29
2018-08-30T18:36:49.045Z,26.28
2018-08-30T18:39:16.744Z,26.31
2018-08-30T18:41:42.368Z,26.31
2018-08-30T18:44:09.026Z,26.29
2018-08-30T18:46:35.709Z,26.28
2018-08-30T18:49:02.375Z,26.27
2018-08-30T18:51:29.099Z,26.32
2018-08-30T18:53:55.712Z,26.27
2018-08-30T18:56:22.374Z,26.29
2018-08-30T18:58:49.036Z,26.26
2018-08-30T19:01:15.685Z,26.31
2018-08-30T19:03:42.351Z,26.27
2018-08-30T19:06:08.966Z,26.20
2018-08-30T19:08:35.603Z,26.25
2018-08-30T19:11:02.254Z,26.25
2018-08-30T19:13:28.913Z,26.21
2018-08-30T19:15:57.503Z,26.19
2018-08-30T19:18:22.284Z,26.21
2018-08-30T19:20:48.934Z,26.20
2018-08-30T19:23:15.599Z,26.21
2018-08-30T19:25:45.141Z,26.19
2018-08-30T19:28:11.826Z,26.19
2018-08-30T19:30:38.467Z,26.21
2018-08-30T19:33:05.199Z,26.20
2018-08-30T19:35:32.988Z,26.16
2018-08-30T19:37:58.459Z,26.15
2018-08-30T19:40:25.172Z,26.17
2018-08-30T19:42:51.828Z,26.16
2018-08-30T19:45:23.057Z,26.14
2018-08-30T19:47:49.352Z,26.07
2018-08-30T19:50:15.997Z,26.10
2018-08-30T19:52:42.631Z,26.09
2018-08-30T19:55:10.626Z,26.08
2018-08-30T19:57:35.910Z,26.08
2018-08-30T20:00:02.557Z,26.08
2018-08-30T20:02:29.349Z,26.10
2018-08-30T20:04:56.010Z,26.07
2018-08-30T20:07:22.792Z,26.08
2018-08-30T20:09:49.520Z,26.07
2018-08-30T20:12:16.178Z,26.06
2018-08-30T20:14:42.951Z,26.07
2018-08-30T20:17:09.589Z,26.06
2018-08-30T20:19:36.551Z,26.05
2018-08-30T20:22:03.206Z,26.01
2018-08-30T20:24:29.838Z,26.03
2018-08-30T20:26:58.707Z,26.04
2018-08-30T20:29:23.110Z,26.05
2018-08-30T20:31:49.823Z,26.02
2018-08-30T20:34:16.466Z,25.98
2018-08-30T20:36:45.019Z,26.00
2018-08-30T20:39:09.795Z,25.98
2018-08-30T20:41:36.537Z,25.98
2018-08-30T20:44:03.184Z,26.01
2018-08-30T20:46:29.882Z,25.98
2018-08-30T20:48:56.469Z,25.98
2018-08-30T20:51:24.198Z,26.00
2018-08-30T20:53:52.659Z,25.92
2018-08-30T20:56:20.657Z,25.91
2018-08-30T20:58:45.942Z,25.88
2018-08-30T21:01:12.752Z,25.90
2018-08-30T21:03:39.396Z,25.91
2018-08-30T21:06:09.280Z,25.91
2018-08-30T21:08:35.918Z,25.90
2018-08-30T21:11:02.571Z,25.93
2018-08-30T21:13:29.277Z,25.89
2018-08-30T21:15:55.959Z,25.90
2018-08-30T21:18:22.569Z,25.89
2018-08-30T21:20:49.217Z,25.91
2018-08-30T21:23:15.849Z,25.87
2018-08-30T21:25:42.505Z,25.86
2018-08-30T21:28:09.198Z,25.89
2018-08-30T21:30:35.839Z,25.85
2018-08-30T21:33:02.580Z,25.86
2018-08-30T21:35:29.229Z,25.86
2018-08-30T21:37:55.962Z,25.87
2018-08-30T21:40:22.621Z,25.85
2018-08-30T21:42:49.313Z,25.84
2018-08-30T21:45:15.996Z,25.84
2018-08-30T21:47:44.043Z,25.84
2018-08-30T21:50:10.968Z,25.82
2018-08-30T21:52:35.934Z,25.82
2018-08-30T21:55:02.579Z,25.82
2018-08-30T21:57:29.264Z,25.83
2018-08-30T21:59:55.917Z,25.81
2018-08-30T22:02:22.689Z,25.80
2018-08-30T22:04:49.332Z,25.80
2018-08-30T22:07:15.998Z,25.80
2018-08-30T22:09:42.629Z,25.80
2018-08-30T22:12:09.245Z,25.76
2018-08-30T22:14:35.895Z,25.76
2018-08-30T22:17:02.625Z,25.71
2018-08-30T22:19:29.273Z,25.69
2018-08-30T22:21:55.911Z,25.70
2018-08-30T22:24:22.558Z,25.70
2018-08-30T22:26:49.223Z,25.70
2018-08-30T22:29:15.855Z,25.69
2018-08-30T22:31:42.493Z,25.68
2018-08-30T22:34:09.143Z,25.69
2018-08-30T22:36:35.790Z,25.67
2018-08-30T22:39:04.679Z,25.68
2018-08-30T22:41:29.120Z,25.65
2018-08-30T22:43:55.763Z,25.67
2018-08-30T22:46:22.402Z,25.65
2018-08-30T22:48:49.064Z,25.66
2018-08-30T22:51:15.742Z,25.63
2018-08-30T22:53:42.370Z,25.62
2018-08-30T22:56:09.007Z,25.62
2018-08-30T22:58:35.694Z,25.62
2018-08-30T23:01:02.428Z,25.62
2018-08-30T23:03:29.135Z,25.63
2018-08-30T23:05:55.810Z,25.61
2018-08-30T23:08:22.459Z,25.63
2018-08-30T23:10:51.985Z,25.60
2018-08-30T23:13:18.664Z,25.61
2018-08-30T23:15:48.320Z,25.61
2018-08-30T23:18:14.971Z,25.60
2018-08-30T23:20:41.613Z,25.58
2018-08-30T23:23:08.279Z,25.56
2018-08-30T23:25:34.959Z,25.56
2018-08-30T23:28:01.646Z,25.57
2018-08-30T23:30:33.915Z,25.55
2018-08-30T23:32:58.279Z,25.54
2018-08-30T23:35:25.262Z,25.55
2018-08-30T23:37:51.942Z,25.56
2018-08-30T23:40:18.590Z,25.52
2018-08-30T23:42:45.325Z,25.53
2018-08-30T23:45:12.020Z,25.52
2018-08-30T23:47:38.667Z,25.52
2018-08-30T23:50:05.305Z,25.48
2018-08-30T23:52:31.954Z,25.51
2018-08-30T23:54:58.589Z,25.50
2018-08-30T23:57:26.475Z,25.48
2018-08-30T23:59:51.884Z,25.45
